Terminal Aerodrome Forecast
Issued by NWS

Home | Current Version | Previous Version | Graphics & Text | Print | Product List | Glossary On
Versions: 1 2 3 4 5 6 7 8 9 10 11 12 13
000
FTUS41 KCLE 201700
TAFFDY
TAF
KFDY 201726Z 2018/2118 05008KT P6SM SCT040 OVC120
     FM210500 VRB03KT P6SM VCSH OVC050
     FM211000 36008KT P6SM OVC035
     FM211600 32008KT P6SM OVC050=

USA.gov is the U.S. government's official web portal to all federal, state and local government web resources and services.